Time;durP1;ratioP1;P1;durP2;ratioP2;P2;SDS_P1;SDS_P2;PMS_P1;PMS_P2;Temp;Humidity;BMP_temperature;BMP_pressure;BME280_temperature;BME280_humidity;BME280_pressure;Samples;Min_cycle;Max_cycle;Signal;HPM_P1;HPM_P2
2022/12/29 05:12:38;;;;;;;0.10;0.10;;;11.20;99.90;;;;;;5058244;28;20049;-91
2022/12/29 05:15:06;;;;;;;0.00;0.00;;;11.10;99.90;;;;;;5035277;28;20121;-91
2022/12/29 05:17:32;;;;;;;0.00;0.00;;;;;;;;;;5030372;28;20487;-91
2022/12/29 05:19:58;;;;;;;0.05;0.05;;;;;;;;;;5028821;28;20093;-91
2022/12/29 05:22:24;;;;;;;0.08;0.08;;;;;;;;;;5033522;28;20060;-90
2022/12/29 06:24:22;;;;;;;0.10;0.10;;;;;;;;;;5010238;28;20527;-91
2022/12/29 06:26:48;;;;;;;0.00;0.00;;;;;;;;;;4994152;28;20018;-91
2022/12/29 06:29:16;;;;;;;0.00;0.00;;;11.00;99.90;;;;;;5001074;28;20446;-92
2022/12/29 06:31:45;;;;;;;0.00;0.00;;;;;;;;;;4996309;28;20093;-91
2022/12/29 06:47:01;;;;;;;0.10;0.10;;;10.20;99.90;;;;;;5013923;28;20042;-90
2022/12/29 06:49:26;;;;;;;0.00;0.00;;;10.20;99.90;;;;;;4973892;28;20030;-86
2022/12/29 06:51:52;;;;;;;0.00;0.00;;;10.10;99.90;;;;;;4979543;28;21113;-90
2022/12/29 06:54:17;;;;;;;0.10;0.10;;;10.10;99.90;;;;;;4983333;28;20018;-89
2022/12/29 06:56:43;;;;;;;0.10;0.10;;;10.00;99.90;;;;;;4994258;28;20555;-90
2022/12/29 06:59:09;;;;;;;0.00;0.00;;;10.00;99.90;;;;;;4975783;28;20030;-91
2022/12/29 07:01:35;;;;;;;0.10;0.10;;;10.00;99.90;;;;;;4997878;28;20034;-90
2022/12/29 07:04:01;;;;;;;0.10;0.10;;;10.70;99.90;;;;;;4997930;28;20026;-89
2022/12/29 07:06:27;;;;;;;0.10;0.10;;;10.00;99.90;;;;;;5003025;28;20483;-89
2022/12/29 07:08:54;;;;;;;0.00;0.00;;;9.90;99.90;;;;;;4995375;28;20121;-90
2022/12/29 07:11:21;;;;;;;0.10;0.10;;;9.80;99.90;;;;;;4971290;28;20023;-89
2022/12/29 07:13:46;;;;;;;0.10;0.10;;;9.70;99.90;;;;;;4977475;28;20054;-90
2022/12/29 07:16:12;;;;;;;0.03;0.03;;;9.60;99.90;;;;;;4994933;28;20022;-90
2022/12/29 07:18:37;;;;;;;0.08;0.08;;;10.00;99.90;;;;;;4994241;28;20034;-90
2022/12/29 07:21:03;;;;;;;0.10;0.10;;;9.60;99.90;;;;;;4974595;28;20102;-89
2022/12/29 07:23:29;;;;;;;0.00;0.00;;;9.50;99.90;;;;;;4976609;28;20093;-91
2022/12/29 07:26:07;;;;;;;0.10;0.10;;;9.60;99.90;;;;;;4985474;28;20026;-91
2022/12/29 07:28:33;;;;;;;0.10;0.10;;;9.60;99.90;;;;;;4984798;28;20490;-89
2022/12/29 07:30:59;;;;;;;0.10;0.10;;;9.50;99.90;;;;;;4972930;28;20033;-90
2022/12/29 07:33:25;;;;;;;0.10;0.10;;;9.50;99.90;;;;;;4974533;28;20026;-89
2022/12/29 07:35:50;;;;;;;0.10;0.10;;;9.40;99.90;;;;;;4996823;28;20463;-89
2022/12/29 07:38:16;;;;;;;0.10;0.10;;;9.40;99.90;;;;;;4984108;28;20030;-90
2022/12/29 07:40:42;;;;;;;0.10;0.10;;;9.30;99.90;;;;;;4988850;28;20034;-91
2022/12/29 07:43:07;;;;;;;0.10;0.10;;;9.40;99.90;;;;;;4978765;28;20080;-90
2022/12/29 07:45:33;;;;;;;0.10;0.10;;;9.50;99.90;;;;;;4993550;28;20030;-90
2022/12/29 07:47:58;;;;;;;0.10;0.10;;;9.40;99.90;;;;;;4977474;28;20058;-90
2022/12/29 07:50:24;;;;;;;0.10;0.10;;;9.30;99.90;;;;;;4996845;28;20026;-91
2022/12/29 07:52:49;;;;;;;0.10;0.10;;;9.40;99.90;;;;;;4979914;28;20073;-88
2022/12/29 07:55:15;;;;;;;0.05;0.05;;;9.30;99.90;;;;;;4993476;28;20026;-91
2022/12/29 07:57:41;;;;;;;0.10;0.10;;;9.30;99.90;;;;;;4994190;28;20026;-89
2022/12/29 08:00:07;;;;;;;0.10;0.10;;;9.40;99.90;;;;;;4974593;28;20125;-91
2022/12/29 08:02:33;;;;;;;0.10;0.10;;;9.30;99.90;;;;;;4991654;28;20026;-89
2022/12/29 08:04:58;;;;;;;0.10;0.10;;;9.40;99.90;;;;;;4974943;28;20037;-88
2022/12/29 08:07:24;;;;;;;0.00;0.00;;;9.30;99.90;;;;;;4975487;28;20654;-89
2022/12/29 08:09:49;;;;;;;0.05;0.05;;;9.40;99.90;;;;;;4992357;28;20084;-91
2022/12/29 08:12:15;;;;;;;0.10;0.10;;;9.40;99.90;;;;;;4971850;28;20022;-89
2022/12/29 08:14:40;;;;;;;0.10;0.10;;;9.30;99.90;;;;;;4989577;28;20089;-90
2022/12/29 08:17:06;;;;;;;0.10;0.10;;;9.20;99.90;;;;;;4971222;28;20102;-90
2022/12/29 08:19:31;;;;;;;0.10;0.10;;;9.30;99.90;;;;;;4977336;28;20406;-90
2022/12/29 08:21:57;;;;;;;0.10;0.10;;;9.30;99.90;;;;;;4992339;28;20037;-90
2022/12/29 08:24:22;;;;;;;0.00;0.00;;;9.40;99.90;;;;;;4975691;28;20050;-89
2022/12/29 08:26:48;;;;;;;0.10;0.10;;;9.40;99.90;;;;;;4994939;28;20082;-91
2022/12/29 08:29:13;;;;;;;0.10;0.10;;;10.30;99.90;;;;;;4982818;28;20379;-91
2022/12/29 08:31:39;;;;;;;0.10;0.10;;;9.50;99.90;;;;;;4992074;28;20037;-91
2022/12/29 08:34:05;;;;;;;0.10;0.10;;;9.40;99.90;;;;;;4967723;28;20030;-91
2022/12/29 08:36:31;;;;;;;0.00;0.00;;;9.60;99.90;;;;;;4974428;28;20122;-90
2022/12/29 08:38:56;;;;;;;0.10;0.10;;;9.40;99.90;;;;;;4997110;28;20054;-90
2022/12/29 08:41:22;;;;;;;0.10;0.10;;;9.50;99.90;;;;;;4975275;28;20030;-90
2022/12/29 08:43:49;;;;;;;0.10;0.10;;;10.10;99.90;;;;;;4975486;28;20034;-93
2022/12/29 08:46:15;;;;;;;0.10;0.10;;;9.60;99.90;;;;;;4987918;28;20046;-92
2022/12/29 08:48:40;;;;;;;0.10;0.10;;;9.60;99.90;;;;;;4973591;28;20061;-91
2022/12/29 08:51:07;;;;;;;0.00;0.00;;;9.60;99.90;;;;;;4973375;28;20476;-91
2022/12/29 08:53:33;;;;;;;0.10;0.10;;;9.80;99.90;;;;;;4977019;28;20026;-91
2022/12/29 08:55:59;;;;;;;0.00;0.00;;;9.60;99.90;;;;;;4990445;28;20498;-91
2022/12/29 08:58:26;;;;;;;0.10;0.10;;;9.60;99.90;;;;;;4973937;28;20033;-91
2022/12/29 09:00:56;;;;;;;0.10;0.10;;;9.60;99.90;;;;;;4997129;28;20034;-89
2022/12/29 09:03:22;;;;;;;;;;;9.60;99.90;;;;;;4972103;28;20029;-91
2022/12/29 09:05:49;;;;;;;0.10;0.10;;;9.60;99.90;;;;;;4993730;28;20333;-91
2022/12/29 09:08:15;;;;;;;0.10;0.10;;;9.60;99.90;;;;;;4993380;28;20030;-92
2022/12/29 09:10:41;;;;;;;0.10;0.10;;;9.60;99.90;;;;;;4977066;28;20038;-91
2022/12/29 09:13:07;;;;;;;0.10;0.10;;;9.70;99.90;;;;;;4996629;28;20022;-90
2022/12/29 09:15:32;;;;;;;0.10;0.10;;;10.10;99.90;;;;;;4970804;28;20018;-91
2022/12/29 09:17:58;;;;;;;0.10;0.10;;;9.90;99.90;;;;;;4969251;28;20026;-91
2022/12/29 09:20:23;;;;;;;0.10;0.10;;;9.70;99.90;;;;;;4977565;28;20096;-91
2022/12/29 09:22:49;;;;;;;0.10;0.10;;;9.70;99.90;;;;;;4999442;28;20391;-90
2022/12/29 09:25:15;;;;;;;0.03;0.03;;;9.80;99.90;;;;;;4972418;28;20128;-91
2022/12/29 09:27:41;;;;;;;0.10;0.10;;;9.70;99.90;;;;;;4993327;28;20506;-93
2022/12/29 09:30:09;;;;;;;0.00;0.00;;;9.70;99.90;;;;;;4973973;28;20034;-91
2022/12/29 09:32:35;;;;;;;0.10;0.10;;;9.70;99.90;;;;;;4995396;28;20037;-91
2022/12/29 09:35:01;;;;;;;0.00;0.00;;;9.80;99.90;;;;;;4972402;28;20026;-91
2022/12/29 09:37:26;;;;;;;0.00;0.00;;;9.90;99.90;;;;;;4981922;28;20033;-90
2022/12/29 09:39:52;;;;;;;0.10;0.10;;;9.90;99.90;;;;;;4993929;28;20030;-90
2022/12/29 09:42:41;;;;;;;0.10;0.10;;;9.90;99.90;;;;;;4975380;28;20029;-91
2022/12/29 09:45:15;;;;;;;0.10;0.10;;;10.00;99.90;;;;;;4983684;28;20022;-90
2022/12/29 09:47:43;;;;;;;0.10;0.10;;;10.30;99.90;;;;;;4990482;28;20038;-92
2022/12/29 09:50:30;;;;;;;0.00;0.00;;;10.30;99.90;;;;;;4977676;28;20029;-92
2022/12/29 09:53:04;;;;;;;0.00;0.00;;;10.50;99.90;;;;;;4973061;28;20030;-91
2022/12/29 09:55:41;;;;;;;0.00;0.00;;;10.50;99.90;;;;;;4986940;28;20029;-91
2022/12/29 09:58:25;;;;;;;0.00;0.00;;;10.60;99.90;;;;;;4975698;28;20052;-91
2022/12/29 10:00:53;;;;;;;0.05;0.05;;;10.70;99.90;;;;;;4976689;28;20027;-90
2022/12/29 10:03:22;;;;;;;0.10;0.10;;;10.80;99.90;;;;;;4991037;28;20549;-91
2022/12/29 10:05:57;;;;;;;0.10;0.10;;;10.80;99.90;;;;;;4990406;28;20092;-91
2022/12/29 10:08:39;;;;;;;0.00;0.00;;;10.70;99.90;;;;;;4976432;28;20283;-90
2022/12/29 10:11:31;;;;;;;0.03;0.03;;;10.60;99.90;;;;;;4980543;28;20032;-90
2022/12/29 10:13:57;;;;;;;0.00;0.00;;;10.50;99.90;;;;;;4968971;28;20395;-91
2022/12/29 10:16:37;;;;;;;0.00;0.00;;;10.50;99.90;;;;;;4977348;28;20018;-90
2022/12/29 10:19:36;;;;;;;0.00;0.00;;;12.20;99.90;;;;;;4976619;28;20025;-91
2022/12/29 10:22:36;;;;;;;0.10;0.10;;;10.70;99.90;;;;;;4975057;28;20364;-91
2022/12/29 10:25:08;;;;;;;0.10;0.10;;;10.70;99.90;;;;;;4994014;28;20029;-91
2022/12/29 10:27:34;;;;;;;0.00;0.00;;;10.70;99.90;;;;;;5001868;28;20022;-90
2022/12/29 10:30:01;;;;;;;0.10;0.10;;;11.70;99.90;;;;;;4978348;28;20030;-91
2022/12/29 10:32:30;;;;;;;0.00;0.00;;;10.60;99.90;;;;;;4985107;28;20034;-90
2022/12/29 10:35:00;;;;;;;0.00;0.00;;;10.50;99.90;;;;;;4976024;28;20495;-91
2022/12/29 10:37:38;;;;;;;0.00;0.00;;;10.50;99.90;;;;;;4972103;28;20387;-91
2022/12/29 10:40:24;;;;;;;0.00;0.00;;;10.50;99.90;;;;;;4972624;28;20054;-90
2022/12/29 10:42:55;;;;;;;0.10;0.10;;;10.50;99.90;;;;;;4976168;28;20027;-92
2022/12/29 10:45:24;;;;;;;0.00;0.00;;;10.50;99.90;;;;;;4993012;28;20553;-91
2022/12/29 10:48:05;;;;;;;0.10;0.10;;;10.90;99.90;;;;;;4990176;28;20091;-91
2022/12/29 10:50:30;;;;;;;0.00;0.00;;;10.50;99.90;;;;;;4975651;28;20073;-91
2022/12/29 10:53:01;;;;;;;0.10;0.10;;;11.30;99.90;;;;;;4988351;28;20018;-91
2022/12/29 10:55:32;;;;;;;0.08;0.08;;;10.50;99.90;;;;;;4997657;28;20544;-92
2022/12/29 10:58:04;;;;;;;0.10;0.10;;;10.50;99.90;;;;;;4977786;28;20069;-90
2022/12/29 11:00:31;;;;;;;0.10;0.10;;;10.40;99.90;;;;;;4971887;28;20023;-91
2022/12/29 11:03:14;;;;;;;0.00;0.00;;;10.50;99.90;;;;;;4975531;28;20113;-90
2022/12/29 11:06:02;;;;;;;0.10;0.10;;;10.50;99.90;;;;;;4977076;28;20034;-90
2022/12/29 11:08:35;;;;;;;0.10;0.10;;;10.60;99.90;;;;;;4976050;28;20057;-90
2022/12/29 11:11:06;;;;;;;0.00;0.00;;;10.60;99.90;;;;;;4990876;28;20032;-90
2022/12/29 11:13:58;;;;;;;0.10;0.10;;;11.10;99.90;;;;;;4991045;28;20411;-87
2022/12/29 11:16:33;;;;;;;0.00;0.00;;;10.90;99.90;;;;;;4968044;28;20034;-88
2022/12/29 11:19:00;;;;;;;0.00;0.00;;;10.90;99.90;;;;;;4991985;28;20034;-87
2022/12/29 11:21:32;;;;;;;0.00;0.00;;;11.00;99.90;;;;;;4972219;28;20034;-87
2022/12/29 11:24:02;;;;;;;0.10;0.10;;;11.00;99.90;;;;;;4976044;28;20038;-87
2022/12/29 11:26:30;;;;;;;0.00;0.00;;;11.10;99.90;;;;;;4961891;28;20219;-88
2022/12/29 11:29:08;;;;;;;0.00;0.00;;;11.20;99.90;;;;;;4976320;28;20423;-90
2022/12/29 11:31:45;;;;;;;0.00;0.00;;;11.20;99.90;;;;;;4975008;28;20030;-88
2022/12/29 11:34:37;;;;;;;0.00;0.00;;;11.30;99.90;;;;;;4977529;28;20134;-86
2022/12/29 11:37:14;;;;;;;0.10;0.10;;;11.40;99.90;;;;;;4972752;28;20034;-88
2022/12/29 11:39:47;;;;;;;0.03;0.03;;;11.30;99.90;;;;;;4977904;28;20038;-89
2022/12/29 11:42:16;;;;;;;0.10;0.10;;;11.30;99.90;;;;;;4991484;28;20034;-87
2022/12/29 11:44:45;;;;;;;0.10;0.10;;;11.20;99.90;;;;;;4975715;28;20030;-88
2022/12/29 11:47:21;;;;;;;0.00;0.00;;;11.20;99.90;;;;;;4974123;28;20034;-86
2022/12/29 11:49:52;;;;;;;0.10;0.10;;;11.30;99.90;;;;;;4976067;28;20435;-88
2022/12/29 11:52:22;;;;;;;0.00;0.00;;;11.30;99.90;;;;;;4976433;28;20028;-88
2022/12/29 11:54:48;;;;;;;0.03;0.03;;;11.80;99.90;;;;;;4990976;28;20030;-87
2022/12/29 11:57:16;;;;;;;0.00;0.00;;;11.40;99.90;;;;;;4976502;28;20035;-90
2022/12/29 11:59:55;;;;;;;0.00;0.00;;;11.50;99.90;;;;;;4982412;28;20030;-89
2022/12/29 12:02:32;;;;;;;0.05;0.05;;;11.50;99.90;;;;;;4985914;28;20025;-89
2022/12/29 12:05:13;;;;;;;0.00;0.00;;;11.50;99.90;;;;;;4997195;28;20030;-88
2022/12/29 12:07:49;;;;;;;0.00;0.00;;;11.60;99.90;;;;;;4975973;28;20377;-89
2022/12/29 12:10:22;;;;;;;0.05;0.05;;;11.50;99.90;;;;;;4994126;28;20057;-88
2022/12/29 12:12:53;;;;;;;0.00;0.00;;;11.50;99.90;;;;;;4972339;28;20026;-88
2022/12/29 12:15:25;;;;;;;0.00;0.00;;;11.50;99.90;;;;;;4993739;28;20023;-89
2022/12/29 12:18:14;;;;;;;0.00;0.00;;;11.50;99.90;;;;;;4978346;28;20022;-87
2022/12/29 18:52:14;;;;;;;0.10;0.10;;;8.80;99.90;;;;;;695794;22;21608;-92
2022/12/29 18:54:40;;;;;;;0.10;0.10;;;;;;;;;;5010649;28;20077;-91
2022/12/29 18:57:06;;;;;;;0.10;0.10;;;;;;;;;;4996150;28;20506;-91
2022/12/29 18:59:32;;;;;;;0.10;0.10;;;;;;;;;;4996716;28;20026;-91
2022/12/29 19:01:58;;;;;;;0.10;0.10;;;;;;;;;;4986527;28;20469;-90
2022/12/29 19:04:24;;;;;;;0.10;0.10;;;;;;;;;;4987173;28;20407;-91
2022/12/29 20:47:50;;;;;;;0.10;0.10;;;;;;;;;;5015540;28;20057;-93
2022/12/29 20:50:16;;;;;;;0.00;0.00;;;;;;;;;;5018581;28;20488;-92
2022/12/29 20:52:42;;;;;;;0.20;0.20;;;;;;;;;;5001650;28;20077;-94
2022/12/29 20:55:08;;;;;;;0.10;0.10;;;;;;;;;;4998725;28;20041;-91
